General Juan N Alvarez International Airport
MMAA : now visible

Airfield :











YOU CAN JOIN US ON...

 
LOGIN :

Register | Disclaimer

   EN    FR    IT 

 









Legend :    VFR   Marginal VFR   IFR   Intensive IFR   Very Intensive IFR
Visi :
Ceiling :
>= 8 km
>= 3000ft
5 to 8 km
1000 to 3000 ft
1500m to 5 km
500 to 1000 ft
800 to 1500m
200 to 500 ft
< 800m
< 200 ft
Symbols :   Thunderstorms  Fog  Heavy snow  Heavy precipitations  Wind > 20 kt






- Airport Elevation : 16 ft
- IATA code : ACA


MMAA - General Juan N Alvarez International

CURRENT METAR :
  • 141844Z 25008KT 8SM FEW100 SCT300 31/25 A2982 RMK 8/032 HZY CU E

EXPIRED METARs :
  • 141740Z 27006KT 8SM FEW100 SCT300 31/25 A2984 RMK SLP094 57008 957 8/032 HZY ISOL CU
  • 141644Z 25008KT 8SM FEW100 SCT300 30/25 A2984 RMK 8/032 HZY

TAF TAF MMAA
Valid from the 14 at 18:00 until the 16 at 00:00 UTC


141722Z 1418/1524 25012KT P6SM SCT100 TX31/1420Z TN26/1512Z
FM150000 24010KT P6SM SCT020CB
PROB40 1502/1506 4SM TSRA BKN015CB
FM150900 00000KT P6SM SCT100
FM152000 24012KT P6SM SCT100
MMFR FIR / North America



MET'MAP, your aeronautical weather chart ! - Copyright ORBIFLY December 2007 - Disclaimer

ORBIFLY MET'MAP TEAM :

Programming & Development : Alexandra Zaïnal
Concept & original design : Baudouin d'Aumeries
Assistance for programming : Marc-Olivier Méhu
Technical & hardware support : Manuel Goepfert

Contact : metmap@orbifly.com




SOURCES & CREDITS :

   NOAA       Earth
Advisory